Time;durP1;ratioP1;P1;durP2;ratioP2;P2;SDS_P1;SDS_P2;PMS_P1;PMS_P2;Temp;Humidity;BMP_temperature;BMP_pressure;BME280_temperature;BME280_humidity;BME280_pressure;Samples;Min_cycle;Max_cycle;Signal;HPM_P1;HPM_P2
2022/05/11 00:01:08;;;;;;;15.15;3.65;;;14.90;99.90;;;;;;5026044;28;20050;-77
2022/05/11 00:03:34;;;;;;;11.75;3.38;;;14.90;99.90;;;;;;5013040;28;20026;-76
2022/05/11 00:05:59;;;;;;;15.82;3.60;;;14.80;99.90;;;;;;5019385;28;20179;-76
2022/05/11 00:08:25;;;;;;;17.33;3.35;;;14.90;99.90;;;;;;5032423;28;20500;-76
2022/05/11 00:10:50;;;;;;;11.52;3.28;;;14.80;99.90;;;;;;5031166;28;20067;-77
2022/05/11 00:13:16;;;;;;;13.95;3.22;;;14.90;99.90;;;;;;5033007;28;20021;-77
2022/05/11 00:15:42;;;;;;;10.73;3.30;;;14.80;99.90;;;;;;5032840;28;20061;-77
2022/05/11 00:18:10;;;;;;;10.80;3.10;;;14.80;99.90;;;;;;5032369;28;20055;-77
2022/05/11 00:20:36;;;;;;;13.05;3.38;;;14.80;99.90;;;;;;5029901;28;20084;-78
2022/05/11 00:23:01;;;;;;;18.40;3.60;;;14.80;99.90;;;;;;5012600;28;20116;-77
2022/05/11 00:25:28;;;;;;;10.57;3.38;;;14.80;99.90;;;;;;5020076;28;20040;-77
2022/05/11 00:27:55;;;;;;;10.38;3.25;;;14.80;99.90;;;;;;5021496;28;20050;-77
2022/05/11 00:30:22;;;;;;;13.40;3.70;;;14.80;99.90;;;;;;5016199;28;20473;-77
2022/05/11 00:32:51;;;;;;;11.18;3.78;;;14.80;99.90;;;;;;5012682;28;20037;-77
2022/05/11 00:35:16;;;;;;;11.43;3.33;;;14.70;99.90;;;;;;5013187;28;20021;-77
2022/05/11 00:37:42;;;;;;;11.70;3.35;;;14.70;99.90;;;;;;5013078;28;20449;-77
2022/05/11 00:40:08;;;;;;;13.93;3.60;;;14.70;99.90;;;;;;5013936;28;20116;-77
2022/05/11 00:42:34;;;;;;;14.38;3.33;;;14.70;99.90;;;;;;5011485;28;20040;-77
2022/05/11 00:44:59;;;;;;;15.88;3.47;;;14.70;99.90;;;;;;5012897;28;20097;-77
2022/05/11 00:47:37;;;;;;;18.33;3.83;;;14.70;99.90;;;;;;5012280;28;20025;-77
2022/05/11 00:50:20;;;;;;;13.93;3.70;;;14.60;99.90;;;;;;5013900;28;20531;-77
2022/05/11 00:52:56;;;;;;;12.13;3.47;;;14.70;99.90;;;;;;5014403;28;20454;-77
2022/05/11 00:55:34;;;;;;;16.98;3.90;;;14.60;99.90;;;;;;5024067;28;20037;-75
2022/05/11 00:58:25;;;;;;;12.27;3.70;;;14.60;99.90;;;;;;5012273;28;20045;-78
2022/05/11 01:00:51;;;;;;;14.38;3.60;;;14.60;99.90;;;;;;5020889;28;20041;-75
2022/05/11 01:03:20;;;;;;;19.45;3.67;;;14.60;99.90;;;;;;5031023;28;20092;-75
2022/05/11 01:05:47;;;;;;;17.90;4.32;;;14.60;99.90;;;;;;5012232;28;20041;-76
2022/05/11 01:08:15;;;;;;;14.68;3.15;;;14.60;99.90;;;;;;5011995;28;20030;-76
2022/05/11 01:10:41;;;;;;;17.27;3.95;;;14.70;99.90;;;;;;5020735;28;20436;-76
2022/05/11 01:13:09;;;;;;;17.85;3.80;;;14.60;99.90;;;;;;5032158;28;20017;-76
2022/05/11 01:15:36;;;;;;;17.63;3.70;;;14.60;99.90;;;;;;5026483;28;20029;-77
2022/05/11 01:18:05;;;;;;;16.00;3.67;;;14.70;99.90;;;;;;5024395;28;20065;-76
2022/05/11 01:20:33;;;;;;;12.95;3.60;;;14.70;99.90;;;;;;5026465;28;20049;-76
2022/05/11 01:22:58;;;;;;;16.50;3.83;;;14.60;99.90;;;;;;5031753;28;20037;-76
2022/05/11 01:25:24;;;;;;;13.07;3.47;;;14.60;99.90;;;;;;5027673;28;20064;-76
2022/05/11 01:27:50;;;;;;;13.57;3.72;;;14.60;99.90;;;;;;5023079;28;20033;-76
2022/05/11 01:30:23;;;;;;;14.20;3.53;;;14.60;99.90;;;;;;5029309;28;20041;-76
2022/05/11 01:32:53;;;;;;;14.70;3.55;;;14.60;99.90;;;;;;5022954;28;20037;-76
2022/05/11 01:35:39;;;;;;;15.35;3.60;;;14.70;99.90;;;;;;5011927;28;20022;-76
2022/05/11 01:38:24;;;;;;;17.75;3.47;;;14.60;99.90;;;;;;5013396;28;20034;-77
2022/05/11 01:40:49;;;;;;;14.95;4.00;;;14.60;99.90;;;;;;5013176;28;20513;-76
2022/05/11 01:43:21;;;;;;;12.88;3.67;;;14.60;99.90;;;;;;5011686;28;20034;-76
2022/05/11 01:45:47;;;;;;;13.00;3.38;;;14.60;99.90;;;;;;5011656;28;20310;-77
2022/05/11 01:48:13;;;;;;;10.98;3.10;;;14.60;99.90;;;;;;5012794;28;20042;-76
2022/05/11 01:50:38;;;;;;;11.55;3.45;;;14.60;99.90;;;;;;5013398;28;20584;-76
2022/05/11 01:53:05;;;;;;;13.18;3.05;;;14.60;99.90;;;;;;5013833;28;20375;-76
2022/05/11 01:55:31;;;;;;;9.40;2.97;;;14.60;99.90;;;;;;5028989;28;20102;-75
2022/05/11 01:57:57;;;;;;;11.07;2.80;;;14.60;99.90;;;;;;5031931;28;20014;-75
2022/05/11 02:00:23;;;;;;;10.93;3.28;;;14.70;99.90;;;;;;5029894;28;20029;-76
2022/05/11 02:02:50;;;;;;;13.65;2.97;;;14.60;99.90;;;;;;5012721;28;20342;-75
2022/05/11 02:07:59;;;;;;;11.73;2.60;;;14.60;99.90;;;;;;5033534;28;20067;-76
2022/05/11 02:10:27;;;;;;;9.88;3.20;;;14.60;99.90;;;;;;5029066;28;20454;-76
2022/05/11 02:12:54;;;;;;;12.45;2.85;;;14.60;99.90;;;;;;5030596;28;20131;-76
2022/05/11 02:15:20;;;;;;;9.35;2.55;;;14.60;99.90;;;;;;5026240;28;20084;-76
2022/05/11 02:17:46;;;;;;;14.02;2.55;;;14.60;99.90;;;;;;5011959;28;20051;-76
2022/05/11 02:20:14;;;;;;;14.35;2.97;;;14.60;99.90;;;;;;5012469;28;20121;-76
2022/05/11 02:22:40;;;;;;;10.50;2.70;;;14.60;99.90;;;;;;5011534;28;20489;-76
2022/05/11 02:25:07;;;;;;;8.90;2.58;;;14.60;99.90;;;;;;5011403;28;20030;-76
2022/05/11 02:27:34;;;;;;;10.82;2.65;;;14.70;99.90;;;;;;5011538;28;20133;-76
2022/05/11 02:30:00;;;;;;;10.23;2.70;;;14.60;99.90;;;;;;5015197;28;20481;-76
2022/05/11 02:32:27;;;;;;;11.63;2.45;;;14.60;99.90;;;;;;5031106;28;20477;-76
2022/05/11 02:35:12;;;;;;;12.93;2.80;;;14.60;99.90;;;;;;5021951;28;20433;-76
2022/05/11 02:37:43;;;;;;;11.40;2.38;;;14.60;99.90;;;;;;5026126;28;20056;-76
2022/05/11 02:40:10;;;;;;;9.60;2.58;;;14.60;99.90;;;;;;5025968;28;20394;-76
2022/05/11 02:42:35;;;;;;;9.93;2.60;;;14.60;99.90;;;;;;5029420;28;20033;-76
2022/05/11 02:45:01;;;;;;;8.85;2.17;;;14.60;99.90;;;;;;5026944;28;20286;-76
2022/05/11 02:47:27;;;;;;;10.02;2.53;;;14.60;99.90;;;;;;5011881;28;20030;-76
2022/05/11 02:49:53;;;;;;;9.23;2.40;;;14.60;99.90;;;;;;5023639;28;20047;-76
2022/05/11 02:52:18;;;;;;;9.07;2.08;;;14.50;99.90;;;;;;5019833;28;20121;-76
2022/05/11 02:54:46;;;;;;;6.82;2.10;;;14.50;99.90;;;;;;5015347;28;20045;-76
2022/05/11 02:57:13;;;;;;;10.73;2.38;;;14.50;99.90;;;;;;5015035;28;20026;-76
2022/05/11 02:59:38;;;;;;;10.40;2.25;;;14.50;99.90;;;;;;5016327;28;20033;-76
2022/05/11 03:02:04;;;;;;;10.80;2.30;;;14.50;99.90;;;;;;5023912;28;20074;-76
2022/05/11 03:04:29;;;;;;;10.50;2.28;;;14.50;99.90;;;;;;5033811;28;20461;-76
2022/05/11 03:06:55;;;;;;;14.07;2.50;;;14.50;99.90;;;;;;5033870;28;20026;-77
2022/05/11 03:09:21;;;;;;;8.75;2.00;;;14.50;99.90;;;;;;5018150;28;20503;-75
2022/05/11 03:11:47;;;;;;;9.63;2.40;;;14.50;99.90;;;;;;5014247;28;20113;-75
2022/05/11 03:14:13;;;;;;;8.48;2.03;;;14.50;99.90;;;;;;5032178;28;20064;-76
2022/05/11 03:16:39;;;;;;;7.30;1.73;;;14.50;99.90;;;;;;5033291;28;20061;-76
2022/05/11 03:19:05;;;;;;;10.00;2.28;;;14.50;99.90;;;;;;5032811;28;20433;-76
2022/05/11 03:21:32;;;;;;;9.07;2.20;;;14.50;99.90;;;;;;5031917;28;20069;-76
2022/05/11 03:23:58;;;;;;;10.43;2.22;;;14.50;99.90;;;;;;5033921;28;20477;-76
2022/05/11 03:26:24;;;;;;;9.75;1.92;;;14.50;99.90;;;;;;5030150;28;20026;-77
2022/05/11 03:28:49;;;;;;;7.20;1.83;;;14.50;99.90;;;;;;5014400;28;20044;-75
2022/05/11 03:31:16;;;;;;;10.38;2.00;;;14.50;99.90;;;;;;5028998;28;20029;-76
2022/05/11 03:36:26;;;;;;;15.45;2.33;;;14.50;99.90;;;;;;5033726;28;20036;-76
2022/05/11 03:38:52;;;;;;;11.65;2.28;;;14.50;99.90;;;;;;5034107;28;20022;-76
2022/05/11 03:41:19;;;;;;;11.10;2.28;;;14.50;99.90;;;;;;5031546;28;20043;-76
2022/05/11 03:43:45;;;;;;;11.98;2.10;;;14.50;99.90;;;;;;5023546;28;20022;-76
2022/05/11 03:46:11;;;;;;;12.80;2.30;;;14.50;99.90;;;;;;5013713;28;20534;-76
2022/05/11 03:48:39;;;;;;;8.40;2.00;;;14.50;99.90;;;;;;5013377;28;20033;-77
2022/05/11 03:51:05;;;;;;;10.70;2.15;;;14.50;99.90;;;;;;5019810;28;20029;-76
2022/05/11 03:53:33;;;;;;;9.85;2.40;;;14.50;99.90;;;;;;5032005;28;20029;-76
2022/05/11 03:55:59;;;;;;;8.55;1.92;;;14.50;99.90;;;;;;5021449;28;20037;-76
2022/05/11 03:58:24;;;;;;;10.48;2.03;;;14.50;99.90;;;;;;5013340;28;20022;-76
2022/05/11 04:00:50;;;;;;;6.82;1.88;;;14.50;99.90;;;;;;5024129;28;20405;-76
2022/05/11 04:03:16;;;;;;;9.20;1.90;;;14.50;99.90;;;;;;5032937;28;20051;-76
2022/05/11 04:05:42;;;;;;;6.68;1.98;;;14.50;99.90;;;;;;5032696;28;20662;-77
2022/05/11 04:08:07;;;;;;;10.55;1.98;;;14.50;99.90;;;;;;5032689;28;20099;-77
2022/05/11 04:10:33;;;;;;;5.55;1.40;;;14.50;99.90;;;;;;5030735;28;20080;-77
2022/05/11 04:13:03;;;;;;;9.90;2.05;;;14.50;99.90;;;;;;5026885;28;20026;-77
2022/05/11 04:15:30;;;;;;;5.47;1.58;;;14.50;99.90;;;;;;5022134;28;20036;-76
2022/05/11 04:17:55;;;;;;;11.02;2.03;;;14.40;99.90;;;;;;5019248;28;20485;-77
2022/05/11 04:20:21;;;;;;;8.57;1.58;;;14.50;99.90;;;;;;5024516;28;20091;-76
2022/05/11 04:22:47;;;;;;;9.50;1.77;;;14.40;99.90;;;;;;5025386;28;20044;-76
2022/05/11 04:25:15;;;;;;;8.82;1.63;;;14.50;99.90;;;;;;5012379;28;20067;-76
2022/05/11 04:27:42;;;;;;;7.97;1.52;;;14.40;99.90;;;;;;5012507;28;20038;-76
2022/05/11 04:30:08;;;;;;;7.10;1.75;;;14.40;99.90;;;;;;5015197;28;20030;-77
2022/05/11 04:32:33;;;;;;;9.00;1.63;;;14.40;99.90;;;;;;5012534;28;20033;-76
2022/05/11 04:34:59;;;;;;;12.60;1.90;;;14.50;99.90;;;;;;5012441;28;20137;-76
2022/05/11 04:37:25;;;;;;;9.65;1.95;;;14.40;99.90;;;;;;5016380;28;20022;-75
2022/05/11 04:39:51;;;;;;;9.38;2.05;;;14.40;99.90;;;;;;5029044;28;20482;-76
2022/05/11 04:42:17;;;;;;;6.22;1.75;;;14.40;99.90;;;;;;5030343;28;20026;-76
2022/05/11 04:44:42;;;;;;;5.40;1.40;;;14.40;99.90;;;;;;5031896;28;20079;-76
2022/05/11 04:47:10;;;;;;;8.02;1.70;;;14.40;99.90;;;;;;5029433;28;20318;-76
2022/05/11 04:49:36;;;;;;;8.73;1.73;;;14.40;99.90;;;;;;5014026;28;20030;-77
2022/05/11 04:52:07;;;;;;;8.32;1.80;;;14.40;99.90;;;;;;5017849;28;20072;-76
2022/05/11 04:54:35;;;;;;;8.57;1.98;;;14.30;99.90;;;;;;5026890;28;20033;-76
2022/05/11 04:57:01;;;;;;;10.95;1.75;;;14.40;99.90;;;;;;5012184;28;20044;-76
2022/05/11 04:59:26;;;;;;;7.55;1.85;;;14.40;99.90;;;;;;5011936;28;20022;-76
2022/05/11 05:01:52;;;;;;;10.77;1.80;;;14.30;99.90;;;;;;5025829;28;20104;-76
2022/05/11 05:04:19;;;;;;;4.40;1.65;;;14.30;99.90;;;;;;5030616;28;20026;-76
2022/05/11 05:06:45;;;;;;;6.07;1.73;;;14.40;99.90;;;;;;5013336;28;20305;-76
2022/05/11 05:09:10;;;;;;;9.57;1.90;;;14.30;99.90;;;;;;5013467;28;20034;-76
2022/05/11 05:11:36;;;;;;;7.90;1.88;;;14.30;99.90;;;;;;5025900;28;20028;-77
2022/05/11 05:14:04;;;;;;;11.00;1.70;;;14.40;99.90;;;;;;5027881;28;20539;-76
2022/05/11 05:16:31;;;;;;;9.55;1.50;;;14.40;99.90;;;;;;5023112;28;20520;-76
2022/05/11 05:18:57;;;;;;;9.90;1.75;;;14.30;99.90;;;;;;5018777;28;20022;-76
2022/05/11 05:21:22;;;;;;;6.82;1.50;;;14.30;99.90;;;;;;5008542;28;20164;-75
2022/05/11 05:23:49;;;;;;;9.32;1.70;;;14.30;99.90;;;;;;5029131;28;20032;-76
2022/05/11 05:26:14;;;;;;;7.22;1.75;;;14.30;99.90;;;;;;5017163;28;20112;-76
2022/05/11 05:31:29;;;;;;;7.15;1.60;;;14.20;99.90;;;;;;5017220;28;20040;-77
2022/05/11 05:33:59;;;;;;;14.38;2.47;;;14.30;99.90;;;;;;5029628;28;20482;-76
2022/05/11 05:36:29;;;;;;;10.32;1.83;;;14.30;99.90;;;;;;5019367;28;20056;-76
2022/05/11 05:38:56;;;;;;;10.07;1.73;;;14.30;99.90;;;;;;5049748;28;20021;-77
2022/05/11 05:41:22;;;;;;;6.70;1.67;;;14.30;99.90;;;;;;5041422;28;20107;-77
2022/05/11 05:43:47;;;;;;;12.02;2.35;;;14.40;99.90;;;;;;5036254;28;20021;-76
2022/05/11 05:46:16;;;;;;;11.90;1.60;;;14.40;99.90;;;;;;5034445;28;20026;-76
2022/05/11 05:48:41;;;;;;;9.73;1.90;;;14.50;99.90;;;;;;5030049;28;20049;-76
2022/05/11 05:51:09;;;;;;;7.47;1.60;;;14.60;99.90;;;;;;5031288;28;20049;-76
2022/05/11 05:53:36;;;;;;;14.85;1.98;;;14.60;99.90;;;;;;5034010;28;20406;-76
2022/05/11 05:56:03;;;;;;;11.02;2.00;;;14.70;99.90;;;;;;5023840;28;20096;-76
2022/05/11 05:58:30;;;;;;;10.68;1.75;;;14.70;99.90;;;;;;5021416;28;20097;-77
2022/05/11 06:00:55;;;;;;;10.15;1.60;;;14.80;99.90;;;;;;5024446;28;20029;-76
2022/05/11 06:03:23;;;;;;;6.82;1.63;;;14.80;99.90;;;;;;5017079;28;20018;-77
2022/05/11 06:05:49;;;;;;;5.78;1.50;;;14.90;99.90;;;;;;5016213;28;20075;-77
2022/05/11 06:08:16;;;;;;;12.50;1.70;;;14.90;99.90;;;;;;5017680;28;20101;-77
2022/05/11 06:10:42;;;;;;;9.98;2.17;;;14.90;99.90;;;;;;5024621;28;20120;-77
2022/05/11 06:13:08;;;;;;;10.55;1.60;;;15.00;99.90;;;;;;5033013;28;20022;-77
2022/05/11 06:15:39;;;;;;;7.10;1.73;;;15.00;99.90;;;;;;5020790;28;20262;-77
2022/05/11 06:18:06;;;;;;;6.53;1.60;;;15.00;99.90;;;;;;5035876;28;20054;-77
2022/05/11 06:20:33;;;;;;;11.65;1.65;;;15.00;99.90;;;;;;5034862;28;20048;-77
2022/05/11 06:22:58;;;;;;;8.40;1.63;;;15.10;99.90;;;;;;5024514;28;20092;-75
2022/05/11 06:25:24;;;;;;;9.63;1.77;;;15.10;99.90;;;;;;5028023;28;20518;-77
2022/05/11 06:27:51;;;;;;;7.78;1.65;;;15.10;99.90;;;;;;5045712;28;20032;-75
2022/05/11 06:30:17;;;;;;;10.93;1.83;;;15.10;99.90;;;;;;5031333;28;20034;-76
2022/05/11 06:32:43;;;;;;;8.43;1.77;;;15.10;99.90;;;;;;5035313;28;20464;-76
2022/05/11 06:35:09;;;;;;;11.93;1.60;;;15.20;99.90;;;;;;5033699;28;20021;-75
2022/05/11 06:37:39;;;;;;;7.88;1.45;;;15.20;99.90;;;;;;5029367;28;20033;-76
2022/05/11 06:40:05;;;;;;;16.30;1.80;;;15.30;99.90;;;;;;5031093;28;20033;-76
2022/05/11 06:42:31;;;;;;;8.80;1.92;;;15.40;99.90;;;;;;5024038;28;20097;-76
2022/05/11 06:44:56;;;;;;;10.73;1.67;;;15.40;99.90;;;;;;5030154;28;20446;-76
2022/05/11 06:47:22;;;;;;;10.63;1.77;;;15.50;99.90;;;;;;5021900;28;20497;-75
2022/05/11 06:49:47;;;;;;;11.05;1.70;;;15.50;99.90;;;;;;5014604;28;20026;-76
2022/05/11 06:52:14;;;;;;;6.40;1.60;;;15.50;99.90;;;;;;5028609;28;20030;-76
2022/05/11 07:00:08;;;;;;;8.95;1.33;;;15.70;99.90;;;;;;5021705;28;20060;-76
2022/05/11 07:02:37;;;;;;;6.47;1.38;;;15.80;99.90;;;;;;5014521;28;20042;-76
2022/05/11 07:05:03;;;;;;;8.00;1.40;;;15.90;99.90;;;;;;5014208;28;20041;-76
2022/05/11 07:07:29;;;;;;;9.70;1.55;;;16.00;99.90;;;;;;5012786;28;20081;-76
2022/05/11 07:09:54;;;;;;;8.13;1.45;;;16.00;99.90;;;;;;5015278;28;20077;-76
2022/05/11 07:12:21;;;;;;;10.30;1.38;;;16.10;99.90;;;;;;5013976;28;20045;-77
2022/05/11 07:14:50;;;;;;;9.68;1.55;;;16.10;99.90;;;;;;5013618;28;20022;-76
2022/05/11 07:17:30;;;;;;;5.07;1.35;;;16.20;99.90;;;;;;5019677;28;20121;-76
2022/05/11 07:19:57;;;;;;;13.25;1.60;;;16.20;99.90;;;;;;5031687;28;20026;-76
2022/05/11 07:22:23;;;;;;;8.60;1.50;;;16.30;99.90;;;;;;5031654;28;20108;-76
2022/05/11 07:24:49;;;;;;;6.90;1.60;;;16.40;99.90;;;;;;5017213;28;20461;-77
2022/05/11 07:27:17;;;;;;;9.38;1.58;;;16.40;99.90;;;;;;5011970;28;20034;-76
2022/05/11 07:29:43;;;;;;;12.48;2.00;;;16.50;99.90;;;;;;5012179;28;20490;-76
2022/05/11 07:32:09;;;;;;;8.90;1.70;;;16.50;99.90;;;;;;5022772;28;20022;-76
2022/05/11 07:34:35;;;;;;;11.50;1.67;;;16.60;99.90;;;;;;5022891;28;20056;-76
2022/05/11 07:37:00;;;;;;;11.27;1.60;;;16.70;99.90;;;;;;5031208;28;20104;-76
2022/05/11 07:39:26;;;;;;;11.25;1.70;;;16.70;99.90;;;;;;5020055;28;20030;-76
2022/05/11 07:41:54;;;;;;;12.43;1.98;;;16.80;99.90;;;;;;5031480;28;20029;-77
2022/05/11 07:44:20;;;;;;;9.48;2.03;;;16.80;99.90;;;;;;5032024;28;20021;-76
2022/05/11 07:46:47;;;;;;;11.63;1.88;;;16.80;99.90;;;;;;5031492;28;20040;-77
2022/05/11 07:49:13;;;;;;;18.23;2.22;;;16.70;99.90;;;;;;5017113;28;20117;-76
2022/05/11 07:51:41;;;;;;;12.88;2.20;;;16.80;99.90;;;;;;5011988;28;20097;-76
2022/05/11 07:54:08;;;;;;;12.40;2.20;;;16.90;99.90;;;;;;5011748;28;20022;-76
2022/05/11 08:02:02;;;;;;;17.30;2.47;;;17.00;99.90;;;;;;5012296;28;20060;-77
2022/05/11 08:04:27;;;;;;;12.20;2.35;;;17.00;99.90;;;;;;5018134;28;20026;-77
2022/05/11 08:06:53;;;;;;;16.65;2.55;;;17.00;99.90;;;;;;5015379;28;20030;-77
2022/05/11 08:09:19;;;;;;;20.90;2.70;;;17.10;99.90;;;;;;5016790;28;20033;-77
2022/05/11 08:11:47;;;;;;;12.65;2.38;;;17.10;99.90;;;;;;5017674;28;20033;-77
2022/05/11 08:14:14;;;;;;;17.33;2.63;;;17.20;99.90;;;;;;5021025;28;20052;-77
2022/05/11 08:16:41;;;;;;;21.55;3.08;;;17.20;99.90;;;;;;5036229;28;20265;-78
2022/05/11 08:19:07;;;;;;;14.10;2.80;;;17.20;99.90;;;;;;5035974;28;20022;-78
2022/05/11 08:21:34;;;;;;;17.60;2.88;;;17.40;99.90;;;;;;4980424;28;1063970;-79
2022/05/11 08:24:00;;;;;;;12.20;2.60;;;17.30;99.90;;;;;;5025008;28;20477;-79
2022/05/11 08:26:26;;;;;;;17.38;3.15;;;17.30;99.90;;;;;;5014534;28;20061;-79
2022/05/11 08:28:52;;;;;;;13.73;2.78;;;17.40;99.90;;;;;;5015285;28;20113;-79
2022/05/11 08:34:02;;;;;;;15.52;3.30;;;17.60;99.90;;;;;;5012052;28;20087;-79
2022/05/11 08:36:28;;;;;;;19.58;3.03;;;17.70;99.90;;;;;;5019516;28;20029;-79
2022/05/11 08:38:56;;;;;;;20.30;3.53;;;17.80;99.90;;;;;;5016867;28;20028;-79
2022/05/11 08:41:39;;;;;;;20.25;3.00;;;17.80;99.90;;;;;;5018966;28;20083;-79
2022/05/11 08:44:09;;;;;;;24.30;3.40;;;17.80;99.90;;;;;;5024469;28;20122;-79
2022/05/11 08:46:43;;;;;;;18.20;3.20;;;17.70;99.90;;;;;;5015428;28;20525;-79
2022/05/11 08:49:24;;;;;;;17.88;3.53;;;17.70;99.90;;;;;;5015887;28;20453;-78
2022/05/11 08:52:10;;;;;;;18.42;2.60;;;17.80;99.90;;;;;;5010485;28;20030;-79
2022/05/11 08:54:46;;;;;;;19.10;3.55;;;17.90;99.90;;;;;;5012104;28;20437;-79
2022/05/11 08:57:19;;;;;;;17.33;3.50;;;17.80;99.90;;;;;;5018430;28;20490;-79
2022/05/11 08:59:46;;;;;;;17.65;3.28;;;17.90;99.90;;;;;;5022337;28;20034;-79
2022/05/11 09:02:50;;;;;;;22.02;3.65;;;17.90;99.90;;;;;;5023411;28;20052;-79
2022/05/11 09:05:20;;;;;;;22.95;4.70;;;18.10;99.90;;;;;;5020548;28;20025;-78
2022/05/11 09:07:48;;;;;;;24.00;3.50;;;18.30;99.90;;;;;;5015021;28;20040;-78
2022/05/11 09:10:22;;;;;;;22.80;4.35;;;18.40;99.90;;;;;;5020397;28;20507;-78
2022/05/11 09:12:52;;;;;;;25.70;4.93;;;18.40;99.90;;;;;;5017830;28;20033;-78
2022/05/11 09:15:19;;;;;;;23.00;4.30;;;18.30;99.90;;;;;;5013841;28;20553;-79
2022/05/11 09:17:45;;;;;;;24.42;4.32;;;18.10;99.90;;;;;;5019608;28;20490;-79
2022/05/11 09:20:21;;;;;;;27.73;4.43;;;18.00;99.90;;;;;;5010212;28;20110;-79
2022/05/11 09:22:52;;;;;;;25.83;4.32;;;17.90;99.90;;;;;;5016599;28;20038;-80
2022/05/11 09:25:27;;;;;;;21.75;3.67;;;17.90;99.90;;;;;;5013971;28;20030;-78
2022/05/11 09:28:19;;;;;;;23.40;3.88;;;18.00;99.90;;;;;;5029343;28;20518;-78
2022/05/11 09:31:03;;;;;;;18.77;3.67;;;18.20;99.90;;;;;;5031686;28;20116;-79
2022/05/11 09:33:33;;;;;;;19.67;3.20;;;18.20;99.90;;;;;;5030916;28;20018;-79
2022/05/11 09:36:02;;;;;;;19.58;3.55;;;18.20;99.90;;;;;;5018225;28;20017;-77
2022/05/11 09:38:46;;;;;;;25.85;3.90;;;18.20;99.90;;;;;;5025211;28;20707;-77
2022/05/11 09:41:33;;;;;;;19.02;3.40;;;18.20;99.90;;;;;;5018635;28;20505;-81
2022/05/11 09:43:59;;;;;;;21.17;3.00;;;18.30;99.90;;;;;;5016433;28;20030;-75
2022/05/11 09:46:33;;;;;;;19.25;3.00;;;18.30;99.90;;;;;;5019013;28;20038;-78
2022/05/11 09:49:24;;;;;;;14.60;2.92;;;18.40;99.90;;;;;;5011380;28;20531;-77
2022/05/11 09:51:54;;;;;;;20.38;3.05;;;18.50;99.90;;;;;;5012768;28;20083;-80
2022/05/11 09:54:19;;;;;;;14.77;2.50;;;18.40;99.90;;;;;;5013261;28;20046;-79
2022/05/11 09:56:57;;;;;;;14.07;2.50;;;18.50;99.90;;;;;;5025589;28;20029;-77
2022/05/11 09:59:32;;;;;;;14.95;2.33;;;18.50;99.90;;;;;;5019173;28;20030;-77
2022/05/11 10:02:18;;;;;;;12.30;2.15;;;18.40;99.90;;;;;;5049908;28;20310;-79
2022/05/11 10:05:07;;;;;;;14.18;2.10;;;18.40;99.90;;;;;;5021931;28;20071;-78
2022/05/11 10:07:40;;;;;;;14.23;2.67;;;18.40;99.90;;;;;;5010504;28;20042;-79
2022/05/11 10:10:12;;;;;;;19.40;2.67;;;18.50;99.90;;;;;;5010862;28;20041;-79
2022/05/11 10:12:40;;;;;;;15.85;2.10;;;18.50;99.50;;;;;;5011026;28;20025;-79
2022/05/11 10:24:24;;;;;;;13.02;2.35;;;18.80;96.20;;;;;;5012612;28;20044;-78
2022/05/11 10:26:49;;;;;;;14.50;2.10;;;19.00;96.20;;;;;;5010167;28;20030;-78
2022/05/11 10:29:21;;;;;;;13.65;2.00;;;19.20;95.90;;;;;;5010535;28;20026;-78
2022/05/11 10:32:15;;;;;;;13.90;2.53;;;19.30;95.50;;;;;;5022009;28;20029;-80
2022/05/11 10:35:15;;;;;;;18.05;2.45;;;19.50;94.20;;;;;;5005602;28;20064;-79
2022/05/11 10:38:01;;;;;;;19.58;2.30;;;19.60;93.90;;;;;;5007922;28;20053;-80
2022/05/11 10:40:40;;;;;;;;;;;19.70;92.70;;;;;;5008293;28;20128;-79
2022/05/11 10:43:21;;;;;;;11.25;2.15;;;19.80;91.60;;;;;;5007762;28;20421;-76
2022/05/11 10:45:58;;;;;;;12.98;2.30;;;19.70;91.80;;;;;;5007985;28;20034;-76
2022/05/11 10:49:00;;;;;;;14.80;2.58;;;19.70;90.10;;;;;;5007717;28;20034;-77
2022/05/11 10:51:57;;;;;;;11.82;1.92;;;19.60;89.80;;;;;;5009673;28;20030;-77
2022/05/11 10:54:29;;;;;;;14.50;2.42;;;19.50;90.50;;;;;;5011243;28;20034;-76
2022/05/11 10:57:10;;;;;;;11.20;1.92;;;19.50;88.60;;;;;;5011405;28;20026;-75
2022/05/11 11:00:07;;;;;;;9.52;1.70;;;19.50;86.40;;;;;;5010411;28;20046;-76
2022/05/11 11:02:49;;;;;;;12.45;1.83;;;19.60;84.60;;;;;;5014821;28;20401;-76
2022/05/11 11:07:11;;;;;;;16.08;2.20;;;19.60;84.80;;;;;;4998473;28;20045;-76
2022/05/11 11:08:47;;;;;;;10.10;1.95;;;19.70;83.00;;;;;;4997541;28;20078;-77
2022/05/11 11:11:31;;;;;;;;;;;19.70;83.90;;;;;;5018976;28;20430;-77
2022/05/11 11:14:01;;;;;;;9.85;1.80;;;19.60;84.90;;;;;;5026481;28;19917;-78
2022/05/11 11:16:35;;;;;;;13.45;2.28;;;19.50;86.60;;;;;;5015473;28;20049;-78
2022/05/11 11:19:04;;;;;;;10.38;1.88;;;19.60;84.50;;;;;;5016920;28;20018;-78
2022/05/11 11:21:31;;;;;;;9.38;1.80;;;19.70;83.10;;;;;;5021209;28;20042;-77
2022/05/11 11:24:13;;;;;;;14.52;1.95;;;19.70;81.90;;;;;;5016550;28;20093;-77
2022/05/11 11:26:46;;;;;;;10.85;1.70;;;19.70;81.50;;;;;;5015696;28;20014;-77
2022/05/11 11:29:11;;;;;;;8.60;1.55;;;19.90;79.00;;;;;;5013894;28;20235;-77
2022/05/11 11:32:07;;;;;;;9.95;1.77;;;19.90;79.00;;;;;;5015437;28;20026;-78
2022/05/11 11:34:34;;;;;;;;;;;20.00;76.70;;;;;;5018529;28;20046;-77
2022/05/11 11:37:32;;;;;;;10.32;1.42;;;20.00;77.70;;;;;;5023898;28;19916;-78
2022/05/11 11:40:14;;;;;;;6.88;1.52;;;20.10;76.30;;;;;;5032534;28;20017;-78
2022/05/11 11:42:43;;;;;;;10.02;1.70;;;20.10;75.60;;;;;;5028759;28;20036;-77
2022/05/11 11:45:34;;;;;;;10.90;1.95;;;20.10;75.50;;;;;;5019941;28;20057;-77
2022/05/11 11:48:04;;;;;;;9.25;1.70;;;20.10;75.30;;;;;;5015009;28;20520;-77
2022/05/11 11:51:03;;;;;;;9.43;2.17;;;20.00;75.60;;;;;;5015462;28;20018;-78
2022/05/11 11:53:42;;;;;;;12.32;2.30;;;20.20;77.20;;;;;;5016527;28;20087;-77
2022/05/11 11:56:23;;;;;;;13.75;2.42;;;20.40;77.20;;;;;;5027677;28;20502;-77
2022/05/11 11:59:03;;;;;;;11.68;2.42;;;20.60;77.90;;;;;;5011698;28;20025;-78
2022/05/11 12:01:32;;;;;;;14.30;2.88;;;20.60;78.80;;;;;;5011919;28;20025;-77
2022/05/11 12:04:01;;;;;;;11.93;2.70;;;20.60;79.20;;;;;;5011993;28;20094;-77
2022/05/11 12:15:18;;;;;;;15.75;3.22;;;21.10;84.10;;;;;;5035161;28;20036;-77
2022/05/11 12:17:44;;;;;;;16.42;3.50;;;21.10;85.40;;;;;;5039892;28;20033;-78
2022/05/11 12:20:17;;;;;;;16.70;3.28;;;21.10;86.30;;;;;;5045223;28;20445;-77
2022/05/11 12:22:51;;;;;;;21.17;4.18;;;21.20;87.00;;;;;;5035998;28;20478;-77
2022/05/11 12:25:23;;;;;;;21.67;3.75;;;21.10;87.40;;;;;;5040813;28;20025;-77
2022/05/11 12:27:49;;;;;;;20.13;4.00;;;21.10;87.80;;;;;;5016047;28;20541;-77
2022/05/11 12:30:17;;;;;;;15.55;3.95;;;21.30;88.10;;;;;;5046088;28;20028;-77
2022/05/11 12:32:50;;;;;;;18.25;3.88;;;21.40;87.60;;;;;;5024394;28;20017;-77
2022/05/11 12:35:21;;;;;;;19.15;3.85;;;21.40;87.40;;;;;;5041070;28;20043;-77
2022/05/11 12:37:56;;;;;;;20.88;3.78;;;21.40;86.90;;;;;;5040502;28;20542;-77
2022/05/11 12:40:23;;;;;;;22.83;3.93;;;21.40;87.20;;;;;;5043167;28;20539;-78
2022/05/11 12:42:52;;;;;;;22.92;4.07;;;21.40;87.30;;;;;;5040962;28;20028;-77
2022/05/11 12:45:22;;;;;;;18.90;4.00;;;21.40;87.10;;;;;;5041744;28;20108;-77
2022/05/11 12:47:54;;;;;;;22.05;3.63;;;21.40;86.30;;;;;;5031787;28;20462;-77
2022/05/11 12:50:28;;;;;;;20.25;4.05;;;21.30;86.70;;;;;;5011869;28;20421;-77
2022/05/11 12:53:16;;;;;;;16.70;3.37;;;21.40;86.30;;;;;;5013848;28;20393;-77
2022/05/11 12:55:48;;;;;;;16.92;3.17;;;21.40;85.50;;;;;;5010073;28;20376;-77
2022/05/11 12:58:23;;;;;;;20.98;3.20;;;21.20;84.90;;;;;;5012096;28;20030;-78
2022/05/11 13:01:00;;;;;;;18.77;3.47;;;21.20;85.20;;;;;;5019663;28;20080;-77
2022/05/11 13:03:36;;;;;;;17.77;3.40;;;21.20;83.90;;;;;;5011741;28;20402;-78
2022/05/11 13:06:10;;;;;;;20.90;3.92;;;21.00;84.60;;;;;;5011604;28;20470;-78
2022/05/11 13:08:43;;;;;;;22.35;3.50;;;21.10;85.50;;;;;;5011650;28;20052;-77
2022/05/11 13:11:15;;;;;;;18.13;3.55;;;20.90;85.30;;;;;;5012641;28;20056;-77
2022/05/11 13:13:42;;;;;;;12.43;3.22;;;20.90;85.60;;;;;;5023254;28;20559;-77
2022/05/11 13:16:15;;;;;;;20.15;3.47;;;20.90;85.60;;;;;;5011578;28;20044;-77
2022/05/11 13:18:41;;;;;;;17.10;3.20;;;21.00;85.00;;;;;;5014618;28;20034;-77
2022/05/11 13:21:08;;;;;;;23.45;4.03;;;21.00;84.60;;;;;;5010680;28;20140;-77
2022/05/11 13:23:36;;;;;;;17.83;3.80;;;21.10;84.70;;;;;;5009541;28;20053;-77
2022/05/11 13:26:07;;;;;;;15.68;3.35;;;21.20;84.00;;;;;;5011228;28;20519;-77
2022/05/11 13:28:41;;;;;;;13.38;3.22;;;21.20;84.00;;;;;;5010812;28;20080;-77
2022/05/11 13:31:28;;;;;;;14.23;3.20;;;21.10;84.20;;;;;;5010544;28;20068;-77
2022/05/11 13:33:55;;;;;;;16.10;2.95;;;21.10;84.90;;;;;;5018644;28;20339;-76
2022/05/11 13:36:23;;;;;;;15.52;3.30;;;21.10;84.20;;;;;;5021618;28;20371;-77